createdAt,value
2022-11-24T00:01:46.473Z,5.40
2022-11-24T00:04:13.441Z,14.52
2022-11-24T00:06:40.487Z,6.73
2022-11-24T00:09:07.546Z,9.98
2022-11-24T00:11:36.352Z,8.32
2022-11-24T00:14:04.499Z,3.65
2022-11-24T00:16:34.119Z,9.02
2022-11-24T00:19:03.069Z,6.05
2022-11-24T00:21:31.240Z,4.28
2022-11-24T00:23:58.857Z,6.43
2022-11-24T00:26:49.345Z,8.40
2022-11-24T00:29:16.311Z,6.20
2022-11-24T00:31:43.160Z,6.35
2022-11-24T00:34:12.002Z,4.83
2022-11-24T00:36:39.624Z,3.78
2022-11-24T00:39:11.146Z,5.03
2022-11-24T00:41:38.509Z,6.57
2022-11-24T00:44:05.634Z,4.53
2022-11-24T00:46:32.594Z,5.13
2022-11-24T00:49:00.561Z,5.28
2022-11-24T00:51:30.467Z,5.47
2022-11-24T00:53:58.594Z,5.63
2022-11-24T00:56:26.649Z,5.20
2022-11-24T00:58:53.606Z,8.00
2022-11-24T01:01:24.441Z,8.57
2022-11-24T01:03:52.262Z,3.50
2022-11-24T01:06:21.471Z,5.20
2022-11-24T01:09:06.570Z,6.03
2022-11-24T01:11:54.604Z,5.50
2022-11-24T01:14:23.646Z,8.13
2022-11-24T01:16:50.417Z,6.37
2022-11-24T01:22:02.256Z,10.35
2022-11-24T01:24:29.030Z,6.10
2022-11-24T01:27:14.644Z,2.72
2022-11-24T01:29:41.397Z,6.27
2022-11-24T01:32:08.172Z,1.83
2022-11-24T01:34:35.174Z,3.53
2022-11-24T01:37:02.150Z,5.73
2022-11-24T01:39:28.964Z,5.13
2022-11-24T01:41:55.917Z,4.00
2022-11-24T01:44:28.548Z,4.30
2022-11-24T01:47:02.884Z,6.53
2022-11-24T01:49:47.224Z,2.50
2022-11-24T01:52:18.068Z,2.50
2022-11-24T01:54:51.679Z,3.60
2022-11-24T01:57:22.144Z,5.50
2022-11-24T01:59:53.319Z,2.33
2022-11-24T02:02:28.455Z,3.63
2022-11-24T02:05:49.462Z,3.07
2022-11-24T02:08:51.509Z,6.57
2022-11-24T02:11:21.272Z,2.97
2022-11-24T02:13:48.746Z,3.53
2022-11-24T02:16:15.609Z,2.50
2022-11-24T02:18:43.433Z,3.83
2022-11-24T02:21:16.155Z,6.10
2022-11-24T02:23:51.910Z,3.90
2022-11-24T02:26:42.093Z,4.20
2022-11-24T02:29:11.484Z,8.53
2022-11-24T02:31:43.305Z,4.40
2022-11-24T02:34:10.193Z,2.70
2022-11-24T02:36:37.037Z,2.07
2022-11-24T02:39:05.712Z,4.47
2022-11-24T02:41:32.623Z,5.13
2022-11-24T02:44:02.273Z,2.43
2022-11-24T02:46:29.147Z,6.53
2022-11-24T02:49:15.748Z,4.53
2022-11-24T02:51:42.549Z,3.10
2022-11-24T02:54:09.381Z,5.67
2022-11-24T02:56:36.199Z,5.97
2022-11-24T02:59:03.002Z,8.27
2022-11-24T03:01:29.772Z,3.47
2022-11-24T03:03:56.634Z,3.73
2022-11-24T03:06:23.375Z,8.60
2022-11-24T03:08:50.222Z,7.23
2022-11-24T03:11:16.984Z,6.93
2022-11-24T03:14:02.808Z,7.40
2022-11-24T03:16:29.701Z,5.83
2022-11-24T03:18:56.448Z,7.00
2022-11-24T03:21:23.269Z,7.17
2022-11-24T03:23:50.125Z,13.70
2022-11-24T03:26:19.133Z,7.90
2022-11-24T03:28:46.194Z,9.23
2022-11-24T03:31:13.542Z,10.70
2022-11-24T03:33:40.502Z,5.57
2022-11-24T03:36:08.496Z,8.40
2022-11-24T03:38:54.203Z,11.10
2022-11-24T03:41:21.047Z,8.80
2022-11-24T03:43:47.785Z,9.20
2022-11-24T03:46:14.578Z,12.63
2022-11-24T03:48:41.404Z,7.80
2022-11-24T03:51:08.336Z,4.87
2022-11-24T03:53:35.260Z,9.10
2022-11-24T03:56:02.561Z,7.90
2022-11-24T03:58:30.089Z,7.37
2022-11-24T04:00:57.696Z,14.83
2022-11-24T04:03:25.230Z,6.70
2022-11-24T04:05:52.198Z,4.00
2022-11-24T04:08:19.500Z,5.33
2022-11-24T04:10:53.705Z,8.33
2022-11-24T04:13:24.674Z,12.47
2022-11-24T04:16:10.197Z,15.83
2022-11-24T04:18:37.200Z,6.27
2022-11-24T04:21:03.944Z,12.80
2022-11-24T04:23:30.968Z,6.33
2022-11-24T04:25:57.639Z,14.57
2022-11-24T04:28:24.457Z,9.13
2022-11-24T04:30:51.246Z,8.63
2022-11-24T04:33:36.502Z,8.67
2022-11-24T04:36:03.799Z,9.80
2022-11-24T04:39:23.768Z,9.30
2022-11-24T04:41:17.203Z,10.27
2022-11-24T04:43:43.891Z,12.07
2022-11-24T04:46:11.767Z,6.13
2022-11-24T04:48:38.716Z,11.63
2022-11-24T04:51:06.682Z,9.10
2022-11-24T04:53:33.537Z,12.43
2022-11-24T04:56:03.973Z,8.60
2022-11-24T04:58:30.781Z,10.03
2022-11-24T05:00:57.473Z,8.93
2022-11-24T05:03:24.372Z,8.43
2022-11-24T05:06:09.834Z,8.00
2022-11-24T05:08:36.678Z,9.37
2022-11-24T05:11:05.269Z,9.13
2022-11-24T05:13:32.369Z,6.13
2022-11-24T05:16:00.271Z,16.07
2022-11-24T05:18:27.233Z,11.03
2022-11-24T05:20:53.956Z,8.53
2022-11-24T05:23:20.780Z,8.00
2022-11-24T05:25:47.886Z,7.80
2022-11-24T05:28:15.232Z,9.00
2022-11-24T05:30:42.459Z,6.60
2022-11-24T05:33:16.233Z,8.73
2022-11-24T05:35:43.445Z,6.67
2022-11-24T05:38:10.161Z,11.00
2022-11-24T05:40:37.773Z,4.00
2022-11-24T05:43:04.664Z,5.77
2022-11-24T05:45:31.436Z,7.50
2022-11-24T05:48:05.657Z,6.67
2022-11-24T05:50:33.198Z,6.33
2022-11-24T05:53:05.013Z,8.97
2022-11-24T05:55:32.179Z,2.33
2022-11-24T05:58:00.814Z,4.17
2022-11-24T06:00:28.912Z,5.60
2022-11-24T06:02:58.060Z,4.37
2022-11-24T06:05:26.269Z,5.83
2022-11-24T06:07:53.583Z,9.67
2022-11-24T06:10:22.205Z,8.97
2022-11-24T06:12:49.020Z,7.73
2022-11-24T06:15:16.181Z,6.23
2022-11-24T06:17:43.382Z,5.70
2022-11-24T06:20:11.676Z,5.43
2022-11-24T06:22:58.603Z,7.97
2022-11-24T06:25:26.404Z,5.32
2022-11-24T06:27:53.271Z,5.03
2022-11-24T06:30:19.999Z,7.22
2022-11-24T06:32:49.755Z,5.85
2022-11-24T06:35:17.247Z,14.90
2022-11-24T06:37:44.177Z,4.68
2022-11-24T06:40:11.296Z,8.82
2022-11-24T06:42:38.138Z,7.07
2022-11-24T06:45:09.088Z,5.23
2022-11-24T06:47:56.021Z,7.60
2022-11-24T06:50:23.253Z,3.03
2022-11-24T06:52:49.993Z,4.83
2022-11-24T06:55:16.937Z,7.03
2022-11-24T06:57:43.627Z,4.77
2022-11-24T07:00:11.195Z,1.73
2022-11-24T07:02:42.519Z,4.47
2022-11-24T07:05:31.235Z,14.67
2022-11-24T07:08:01.786Z,2.63
2022-11-24T07:10:28.899Z,3.83
2022-11-24T07:12:55.764Z,3.13
2022-11-24T07:15:22.646Z,3.47
2022-11-24T07:17:49.404Z,3.33
2022-11-24T07:20:16.679Z,4.85
2022-11-24T07:22:43.439Z,4.00
2022-11-24T07:25:28.924Z,2.90
2022-11-24T07:28:00.153Z,7.23
2022-11-24T07:30:28.477Z,3.80
2022-11-24T07:33:02.590Z,5.23
2022-11-24T07:35:30.877Z,8.50
2022-11-24T07:37:58.854Z,2.33
2022-11-24T07:40:27.007Z,2.90
2022-11-24T07:42:54.408Z,3.90
2022-11-24T07:45:26.130Z,5.10
2022-11-24T07:47:52.880Z,8.87
2022-11-24T07:50:20.738Z,5.63
2022-11-24T07:53:06.306Z,6.47
2022-11-24T07:55:34.345Z,3.33
2022-11-24T07:58:01.818Z,6.80
2022-11-24T08:00:29.224Z,5.07
2022-11-24T08:02:55.953Z,6.17
2022-11-24T08:05:22.745Z,4.43
2022-11-24T08:08:33.446Z,5.20
2022-11-24T08:11:08.780Z,4.17
2022-11-24T08:13:36.929Z,8.03
2022-11-24T08:16:05.610Z,5.73
2022-11-24T08:18:32.812Z,5.67
2022-11-24T08:20:59.942Z,4.90
2022-11-24T08:23:45.473Z,4.00
2022-11-24T08:26:19.021Z,6.70
2022-11-24T08:28:47.221Z,5.43
2022-11-24T08:31:20.756Z,6.03
2022-11-24T08:33:47.839Z,6.40
2022-11-24T08:36:19.429Z,6.43
2022-11-24T08:38:46.763Z,5.80
2022-11-24T08:41:16.005Z,4.30
2022-11-24T08:43:43.316Z,3.90
2022-11-24T08:46:13.730Z,6.73
2022-11-24T08:48:41.620Z,2.40
2022-11-24T08:51:14.908Z,8.03
2022-11-24T08:56:46.196Z,3.87
2022-11-24T08:59:14.211Z,7.87
2022-11-24T09:01:41.907Z,5.10
2022-11-24T09:04:08.818Z,6.30
2022-11-24T09:06:35.553Z,4.63
2022-11-24T09:09:02.377Z,3.13
2022-11-24T09:11:29.385Z,4.30
2022-11-24T09:13:56.542Z,8.10
2022-11-24T09:16:29.417Z,6.60
2022-11-24T09:19:08.103Z,8.93
2022-11-24T09:21:38.732Z,9.80
2022-11-24T09:24:07.498Z,5.07
2022-11-24T09:26:36.191Z,10.63
2022-11-24T09:29:04.850Z,5.70
2022-11-24T09:31:50.248Z,8.70
2022-11-24T09:34:17.098Z,6.07
2022-11-24T09:36:43.944Z,9.57
2022-11-24T09:39:11.882Z,5.97
2022-11-24T09:41:57.057Z,7.57
2022-11-24T09:44:50.453Z,7.17
2022-11-24T09:47:52.184Z,6.70
2022-11-24T09:50:25.571Z,5.67
2022-11-24T09:53:10.877Z,2.97
2022-11-24T09:55:47.846Z,4.30
2022-11-24T09:58:24.406Z,4.73
2022-11-24T10:00:53.924Z,8.87
2022-11-24T10:03:46.009Z,7.97
2022-11-24T10:06:52.833Z,9.23
2022-11-24T10:09:38.500Z,6.07
2022-11-24T10:12:23.801Z,11.63
2022-11-24T10:14:56.488Z,6.50
2022-11-24T10:17:46.227Z,10.93
2022-11-24T10:20:27.221Z,6.50
2022-11-24T10:22:53.958Z,10.27
2022-11-24T10:25:36.216Z,8.80
2022-11-24T10:28:05.159Z,5.13
2022-11-24T10:30:32.052Z,11.00
2022-11-24T10:33:30.610Z,8.77
2022-11-24T10:36:09.615Z,13.07
2022-11-24T10:38:51.136Z,10.37
2022-11-24T10:41:29.592Z,13.50
2022-11-24T10:43:57.936Z,13.03
2022-11-24T10:46:27.804Z,11.67
2022-11-24T10:49:01.810Z,8.60
2022-11-24T10:51:34.804Z,16.53
2022-11-24T10:54:10.807Z,12.07
2022-11-24T10:56:56.726Z,17.47
2022-11-24T10:59:32.909Z,15.53
2022-11-24T11:02:00.232Z,14.03
2022-11-24T11:04:31.158Z,17.63
2022-11-24T11:07:09.710Z,16.43
2022-11-24T11:09:36.873Z,18.87
2022-11-24T11:12:42.653Z,16.70
2022-11-24T11:15:29.976Z,19.67
2022-11-24T11:18:18.090Z,22.80
2022-11-24T11:20:56.147Z,22.58
2022-11-24T11:23:27.775Z,17.37
2022-11-24T11:26:31.062Z,25.10
2022-11-24T11:35:11.577Z,20.60
2022-11-24T11:37:38.525Z,18.97
2022-11-24T11:40:16.374Z,19.52
2022-11-24T11:43:04.985Z,18.77
2022-11-24T11:45:45.786Z,25.08
2022-11-24T11:48:25.056Z,25.58
2022-11-24T11:54:06.303Z,27.05
2022-11-24T11:56:40.400Z,18.02
2022-11-24T11:59:24.087Z,28.38
2022-11-24T12:02:12.680Z,25.38
2022-11-24T12:04:52.655Z,24.23
2022-11-24T12:07:55.997Z,21.70
2022-11-24T12:10:31.610Z,24.98
2022-11-24T12:13:31.979Z,20.80
2022-11-24T12:16:23.484Z,18.65
2022-11-24T12:18:58.428Z,18.88
2022-11-24T12:21:47.659Z,19.13
2022-11-24T12:24:35.588Z,31.88
2022-11-24T12:27:24.816Z,20.08
2022-11-24T12:30:14.321Z,17.17
2022-11-24T12:33:02.095Z,15.10
2022-11-24T12:35:37.182Z,17.70
2022-11-24T12:38:48.041Z,16.55
2022-11-24T12:41:43.044Z,17.23
2022-11-24T12:44:41.005Z,23.45
2022-11-24T12:47:27.359Z,21.20
2022-11-24T12:50:15.602Z,23.13
2022-11-24T12:52:52.882Z,19.50
2022-11-24T12:55:23.712Z,26.88
2022-11-24T12:58:18.083Z,19.33
2022-11-24T13:01:16.458Z,22.35
2022-11-24T13:03:59.126Z,23.08
2022-11-24T13:06:37.425Z,25.98
2022-11-24T13:09:12.864Z,26.50
2022-11-24T13:11:53.329Z,24.83
2022-11-24T13:14:28.814Z,32.67
2022-11-24T13:19:52.537Z,33.83
2022-11-24T13:22:26.390Z,33.28
2022-11-24T13:25:17.572Z,31.10
2022-11-24T13:27:51.880Z,27.52
2022-11-24T13:30:33.620Z,27.20
2022-11-24T13:33:29.803Z,30.40
2022-11-24T13:36:07.864Z,34.00
2022-11-24T13:38:43.680Z,25.73
2022-11-24T13:41:32.407Z,32.53
2022-11-24T13:44:17.373Z,35.03
2022-11-24T13:47:05.784Z,30.20
2022-11-24T13:49:46.515Z,20.73
2022-11-24T13:52:51.081Z,36.47
2022-11-24T13:55:22.178Z,31.85
2022-11-24T13:57:53.924Z,36.10
2022-11-24T14:01:19.992Z,32.20
2022-11-24T14:04:33.344Z,32.90
2022-11-24T14:07:09.545Z,37.80
2022-11-24T14:09:45.791Z,28.67
2022-11-24T14:12:19.105Z,28.77
2022-11-24T14:14:48.678Z,36.20
2022-11-24T14:17:27.770Z,24.40
2022-11-24T14:19:59.212Z,26.58
2022-11-24T14:22:40.299Z,29.95
2022-11-24T14:25:30.255Z,25.30
2022-11-24T14:27:57.735Z,42.13
2022-11-24T14:30:25.180Z,39.53
2022-11-24T14:33:00.275Z,29.10
2022-11-24T14:35:29.008Z,30.65
2022-11-24T14:38:18.263Z,19.80
2022-11-24T14:40:56.041Z,28.15
2022-11-24T14:43:26.315Z,30.48
2022-11-24T14:46:18.741Z,35.08
2022-11-24T14:48:51.597Z,35.30
2022-11-24T14:51:29.434Z,34.70
2022-11-24T14:54:02.646Z,30.10
2022-11-24T14:56:34.158Z,34.72
2022-11-24T14:59:01.196Z,21.40
2022-11-24T15:01:46.671Z,35.83
2022-11-24T15:05:06.595Z,37.97
2022-11-24T15:07:37.914Z,28.00
2022-11-24T15:10:07.476Z,24.63
2022-11-24T15:12:40.860Z,27.52
2022-11-24T15:15:13.877Z,31.27
2022-11-24T15:17:58.441Z,35.70
2022-11-24T15:20:26.965Z,34.97
2022-11-24T15:23:12.461Z,35.33
2022-11-24T15:25:39.401Z,33.35
2022-11-24T15:28:06.140Z,37.70
2022-11-24T15:30:35.298Z,35.42
2022-11-24T15:33:02.892Z,33.92
2022-11-24T15:35:32.170Z,33.22
2022-11-24T15:37:59.295Z,26.40
2022-11-24T15:40:26.283Z,44.17
2022-11-24T15:42:55.321Z,30.25
2022-11-24T15:45:24.347Z,31.13
2022-11-24T15:47:51.317Z,31.40
2022-11-24T15:50:38.601Z,33.58
2022-11-24T15:53:06.672Z,44.53
2022-11-24T15:55:33.500Z,42.08
2022-11-24T15:58:00.444Z,29.17
2022-11-24T16:00:29.501Z,33.72
2022-11-24T16:02:56.245Z,32.42
2022-11-24T16:05:23.300Z,28.05
2022-11-24T16:07:50.224Z,29.25
2022-11-24T16:10:31.322Z,25.25
2022-11-24T16:12:58.284Z,31.75
2022-11-24T16:16:02.735Z,28.90
2022-11-24T16:21:16.063Z,30.15
2022-11-24T16:23:42.868Z,28.17
2022-11-24T16:26:10.166Z,30.70
2022-11-24T16:28:55.551Z,22.92
2022-11-24T16:31:22.385Z,31.75
2022-11-24T16:33:49.289Z,29.55
2022-11-24T16:36:16.047Z,23.85
2022-11-24T16:39:01.350Z,25.45
2022-11-24T16:41:47.132Z,19.00
2022-11-24T16:44:14.059Z,25.73
2022-11-24T16:46:40.827Z,23.35
2022-11-24T16:49:08.945Z,21.38
2022-11-24T16:54:39.044Z,26.15
2022-11-24T16:57:10.302Z,32.17
2022-11-24T16:59:43.327Z,31.52
2022-11-24T17:02:12.713Z,23.00
2022-11-24T17:04:39.602Z,18.10
2022-11-24T17:07:07.757Z,28.52
2022-11-24T17:09:40.324Z,24.80
2022-11-24T17:12:07.922Z,28.00
2022-11-24T17:14:34.973Z,20.63
2022-11-24T17:17:02.000Z,23.83
2022-11-24T17:19:31.761Z,13.27
2022-11-24T17:21:58.551Z,27.80
2022-11-24T17:24:25.309Z,27.77
2022-11-24T17:26:52.160Z,24.75
2022-11-24T17:29:19.070Z,17.27
2022-11-24T17:31:45.946Z,20.88
2022-11-24T17:34:12.826Z,35.45
2022-11-24T17:36:44.764Z,26.45
2022-11-24T17:39:12.201Z,26.58
2022-11-24T17:41:38.958Z,33.03
2022-11-24T17:44:08.607Z,37.13
2022-11-24T17:46:37.170Z,27.02
2022-11-24T17:49:04.097Z,31.88
2022-11-24T17:51:30.933Z,33.03
2022-11-24T17:53:57.898Z,23.45
2022-11-24T17:56:27.096Z,31.23
2022-11-24T17:59:12.825Z,31.13
2022-11-24T18:01:39.791Z,37.20
2022-11-24T18:04:44.782Z,38.20
2022-11-24T18:07:11.656Z,24.80
2022-11-24T18:09:38.670Z,33.25
2022-11-24T18:14:50.080Z,29.42
2022-11-24T18:17:16.781Z,25.63
2022-11-24T18:19:43.582Z,26.77
2022-11-24T18:22:13.280Z,20.98
2022-11-24T18:24:40.417Z,26.35
2022-11-24T18:27:10.136Z,19.25
2022-11-24T18:29:36.897Z,17.70
2022-11-24T18:32:03.838Z,22.88
2022-11-24T18:34:30.639Z,23.80
2022-11-24T18:36:57.359Z,13.80
2022-11-24T18:39:24.134Z,20.02
2022-11-24T18:41:50.904Z,16.23
2022-11-24T18:44:36.387Z,18.10
2022-11-24T18:47:22.220Z,15.93
2022-11-24T18:49:49.013Z,20.70
2022-11-24T18:52:15.808Z,20.05
2022-11-24T18:54:42.576Z,23.63
2022-11-24T18:57:27.937Z,20.63
2022-11-24T18:59:54.923Z,20.98
2022-11-24T19:02:21.681Z,15.73
2022-11-24T19:07:33.364Z,22.98
2022-11-24T19:10:00.137Z,15.75
2022-11-24T19:12:45.681Z,17.98
2022-11-24T19:15:12.636Z,13.15
2022-11-24T19:17:39.341Z,19.75
2022-11-24T19:20:06.890Z,24.00
2022-11-24T19:22:33.596Z,16.20
2022-11-24T19:25:19.043Z,15.52
2022-11-24T19:28:04.969Z,20.70
2022-11-24T19:30:32.402Z,10.75
2022-11-24T19:32:59.146Z,17.88
2022-11-24T19:35:44.631Z,24.02
2022-11-24T19:38:31.140Z,19.55
2022-11-24T19:41:06.673Z,16.65
2022-11-24T19:43:34.252Z,17.73
2022-11-24T19:46:06.332Z,15.13
2022-11-24T19:48:53.632Z,17.70
2022-11-24T19:51:39.832Z,18.27
2022-11-24T19:54:08.435Z,17.85
2022-11-24T19:56:55.505Z,17.73
2022-11-24T19:59:40.738Z,11.18
2022-11-24T20:05:12.254Z,20.75
2022-11-24T20:07:39.200Z,17.60
2022-11-24T20:10:25.060Z,11.20
2022-11-24T20:12:52.261Z,13.88
2022-11-24T20:15:19.090Z,14.65
2022-11-24T20:17:46.555Z,19.00
2022-11-24T20:23:17.477Z,22.17
2022-11-24T20:25:44.215Z,17.25
2022-11-24T20:28:11.683Z,19.65
2022-11-24T20:30:38.444Z,18.80
2022-11-24T20:33:05.247Z,16.27
2022-11-24T20:35:32.011Z,14.93
2022-11-24T20:37:58.816Z,18.00
2022-11-24T20:40:25.578Z,13.77
2022-11-24T20:42:52.316Z,15.52
2022-11-24T20:45:19.231Z,16.33
2022-11-24T20:47:46.200Z,14.27
2022-11-24T20:50:12.908Z,23.77
2022-11-24T20:52:39.603Z,23.55
2022-11-24T20:55:07.282Z,16.08
2022-11-24T20:57:52.529Z,13.27
2022-11-24T21:00:38.729Z,18.88
2022-11-24T21:03:05.468Z,13.57
2022-11-24T21:05:54.785Z,19.88
2022-11-24T21:08:21.562Z,21.83
2022-11-24T21:10:58.580Z,15.55
2022-11-24T21:13:26.372Z,22.45
2022-11-24T21:15:53.979Z,17.50
2022-11-24T21:18:40.097Z,21.30
2022-11-24T21:21:26.640Z,13.20
2022-11-24T21:23:53.574Z,17.33
2022-11-24T21:26:39.846Z,19.25
2022-11-24T21:29:08.024Z,21.70
2022-11-24T21:31:37.149Z,19.15
2022-11-24T21:34:05.477Z,15.93
2022-11-24T21:36:35.616Z,13.57
2022-11-24T21:39:03.953Z,20.88
2022-11-24T21:41:33.107Z,15.20
2022-11-24T21:44:00.327Z,17.35
2022-11-24T21:46:29.612Z,13.02
2022-11-24T21:48:56.400Z,15.50
2022-11-24T21:51:23.231Z,12.02
2022-11-24T21:53:50.077Z,13.13
2022-11-24T21:56:19.480Z,7.38
2022-11-24T21:58:46.323Z,7.10
2022-11-24T22:01:13.906Z,7.80
2022-11-24T22:04:00.333Z,8.65
2022-11-24T22:07:05.077Z,9.88
2022-11-24T22:09:31.919Z,10.15
2022-11-24T22:11:58.625Z,7.90
2022-11-24T22:14:25.685Z,8.27
2022-11-24T22:16:52.770Z,11.25
2022-11-24T22:19:19.742Z,11.15
2022-11-24T22:21:46.483Z,15.90
2022-11-24T22:24:13.283Z,13.90
2022-11-24T22:26:59.452Z,11.77
2022-11-24T22:29:26.213Z,13.73
2022-11-24T22:31:53.014Z,10.23
2022-11-24T22:34:19.842Z,5.45
2022-11-24T22:36:46.699Z,13.45
2022-11-24T22:39:13.604Z,12.48
2022-11-24T22:41:40.374Z,6.85
2022-11-24T22:44:25.702Z,6.72
2022-11-24T22:46:52.483Z,12.63
2022-11-24T22:49:19.287Z,8.25
2022-11-24T22:51:46.294Z,10.85
2022-11-24T22:54:14.052Z,5.32
2022-11-24T22:56:40.770Z,9.38
2022-11-24T22:59:07.569Z,15.43
2022-11-24T23:01:34.338Z,14.20
2022-11-24T23:04:02.458Z,9.20
2022-11-24T23:06:31.555Z,9.18
2022-11-24T23:09:00.203Z,16.40
2022-11-24T23:11:36.335Z,8.95
2022-11-24T23:16:50.499Z,9.77
2022-11-24T23:19:17.940Z,10.90
2022-11-24T23:21:44.695Z,8.15
2022-11-24T23:24:11.642Z,11.73
2022-11-24T23:26:40.429Z,8.65
2022-11-24T23:29:07.913Z,9.88
2022-11-24T23:31:35.749Z,12.73
2022-11-24T23:34:03.885Z,17.30
2022-11-24T23:36:49.252Z,14.30
2022-11-24T23:39:15.981Z,19.25
2022-11-24T23:41:42.721Z,14.30
2022-11-24T23:44:09.432Z,21.10
2022-11-24T23:46:36.477Z,18.58
2022-11-24T23:49:04.070Z,15.82
2022-11-24T23:51:32.825Z,16.60
2022-11-24T23:54:00.471Z,18.88
2022-11-24T23:56:33.088Z,10.13
2022-11-24T23:59:01.331Z,13.50
